Terminal Aerodrome Forecast
Issued by NWS

Home | Current Version | Previous Version | Text Only | Print | Product List | Glossary On
Versions: 1 2 3 4 5 6 7 8 9 10 11 12 13 14 15
000
FTUS46 KSEW 180500
TAFBFI
TAF
KBFI 180521Z 1806/1906 VRB03KT P6SM -SHRA FEW030 BKN060 OVC100
     FM181200 17003KT P6SM -SHRA BKN020 OVC060
     FM181500 18004KT P6SM OVC020
     FM182000 18005KT P6SM BKN030 OVC050
     FM182300 19005KT P6SM SCT030 OVC060=

USA.gov is the U.S. government's official web portal to all federal, state and local government web resources and services.